Time;durP1;ratioP1;P1;durP2;ratioP2;P2;SDS_P1;SDS_P2;PMS_P1;PMS_P2;Temp;Humidity;BMP_temperature;BMP_pressure;BME280_temperature;BME280_humidity;BME280_pressure;Samples;Min_cycle;Max_cycle;Signal;HPM_P1;HPM_P2
2020/12/20 00:00:31;;;;;;;81.77;40.00;;;;;;;;;;4381735;32;20305;-58
2020/12/20 00:02:57;;;;;;;81.97;41.50;;;;;;;;;;4378876;32;20426;-59
2020/12/20 00:05:24;;;;;;;82.33;39.97;;;;;;;;;;4376165;32;20252;-59
2020/12/20 00:07:51;;;;;;;76.43;38.30;;;;;;;;;;4382188;32;20747;-59
2020/12/20 00:10:17;;;;;;;76.27;39.93;;;;;;;;;;4381490;32;20234;-59
2020/12/20 00:12:43;;;;;;;80.53;38.13;;;;;;;;;;4380297;32;20305;-60
2020/12/20 00:15:08;;;;;;;82.77;41.93;;;;;;;;;;4381354;32;20285;-58
2020/12/20 00:17:34;;;;;;;81.27;41.87;;;;;;;;;;4383148;32;20331;-60
2020/12/20 00:20:00;;;;;;;76.37;37.63;;;;;;;;;;4384835;32;20287;-59
2020/12/20 00:22:25;;;;;;;75.63;36.37;;;;;;;;;;4383127;32;20567;-59
2020/12/20 00:24:51;;;;;;;93.03;40.60;;;;;;;;;;4379938;32;20236;-60
2020/12/20 00:27:16;;;;;;;82.00;40.57;;;;;;;;;;4383880;32;20692;-59
2020/12/20 00:29:42;;;;;;;88.53;43.33;;;;;;;;;;4381798;32;20406;-60
2020/12/20 00:32:11;;;;;;;107.00;43.57;;;;;;;;;;4385575;32;20780;-60
2020/12/20 00:34:37;;;;;;;90.30;43.27;;;;;;;;;;4385353;32;20339;-60
2020/12/20 00:37:04;;;;;;;66.43;35.10;;;;;;;;;;4379324;32;20830;-58
2020/12/20 00:39:30;;;;;;;90.87;41.33;;;;;;;;;;4357678;32;20676;-58
2020/12/20 00:41:58;;;;;;;89.73;42.23;;;;;;;;;;4351396;32;20699;-58
2020/12/20 00:44:25;;;;;;;89.67;43.90;;;;;;;;;;4361888;32;20319;-58
2020/12/20 00:46:52;;;;;;;101.30;45.27;;;;;;;;;;4373262;32;20237;-57
2020/12/20 00:49:17;;;;;;;90.03;42.60;;;;;;;;;;4380597;32;20309;-59
2020/12/20 00:51:43;;;;;;;83.03;38.30;;;;;;;;;;4383159;32;20659;-59
2020/12/20 00:54:09;;;;;;;91.40;42.20;;;;;;;;;;4379975;32;20372;-59
2020/12/20 00:56:34;;;;;;;94.13;43.03;;;;;;;;;;4379375;32;20304;-60
2020/12/20 00:58:59;;;;;;;87.23;43.80;;;;;;;;;;4381440;32;20292;-60
2020/12/20 01:01:25;;;;;;;90.83;43.90;;;;;;;;;;4381737;32;20221;-59
2020/12/20 01:03:51;;;;;;;87.50;43.73;;;;;;;;;;4384500;32;20309;-59
2020/12/20 01:06:18;;;;;;;94.40;45.67;;;;;;;;;;4383426;32;20753;-58
2020/12/20 01:08:44;;;;;;;98.10;45.83;;;;;;;;;;4384998;32;20222;-59
2020/12/20 01:11:11;;;;;;;102.37;43.97;;;;;;;;;;4383977;32;20218;-60
2020/12/20 01:13:36;;;;;;;90.63;42.63;;;;;;;;;;4382276;32;20209;-58
2020/12/20 01:16:02;;;;;;;105.83;44.73;;;;;;;;;;4383671;32;20347;-59
2020/12/20 01:18:28;;;;;;;95.07;45.13;;;;;;;;;;4381868;32;20320;-59
2020/12/20 01:20:53;;;;;;;85.13;40.93;;;;;;;;;;4379436;32;20448;-59
2020/12/20 01:23:19;;;;;;;78.60;40.37;;;;;;;;;;4382061;32;20356;-60
2020/12/20 01:25:44;;;;;;;72.17;39.30;;;;;;;;;;4385775;32;20254;-59
2020/12/20 01:28:09;;;;;;;69.13;37.17;;;;;;;;;;4387094;32;20304;-59
2020/12/20 01:30:35;;;;;;;77.90;37.73;;;;;;;;;;4385479;32;20250;-60
2020/12/20 01:33:00;;;;;;;65.47;32.80;;;;;;;;;;4386917;32;20423;-59
2020/12/20 01:35:26;;;;;;;44.67;25.57;;;;;;;;;;4384246;32;20281;-59
2020/12/20 01:37:51;;;;;;;41.87;24.87;;;;;;;;;;4374383;32;20202;-59
2020/12/20 01:40:17;;;;;;;36.70;22.70;;;;;;;;;;4371784;32;20312;-59
2020/12/20 01:42:42;;;;;;;47.77;25.30;;;;;;;;;;4383219;32;20222;-60
2020/12/20 01:45:08;;;;;;;47.43;26.90;;;;;;;;;;4380893;32;20578;-59
2020/12/20 01:47:34;;;;;;;49.00;27.10;;;;;;;;;;4385493;32;20679;-60
2020/12/20 01:50:00;;;;;;;51.87;28.60;;;;;;;;;;4384348;32;20708;-59
2020/12/20 01:52:27;;;;;;;60.90;30.07;;;;;;;;;;4380538;32;20233;-59
2020/12/20 01:54:56;;;;;;;58.87;31.00;;;;;;;;;;4383586;32;20679;-59
2020/12/20 01:57:22;;;;;;;69.63;31.37;;;;;;;;;;4383740;32;20205;-59
2020/12/20 01:59:48;;;;;;;63.67;32.60;;;;;;;;;;4381298;32;20750;-59
2020/12/20 02:02:13;;;;;;;76.80;36.93;;;;;;;;;;4382070;32;20202;-59
2020/12/20 02:04:41;;;;;;;68.53;35.50;;;;;;;;;;4384856;32;20258;-59
2020/12/20 02:07:07;;;;;;;68.63;36.33;;;;;;;;;;4384404;32;20214;-60
2020/12/20 02:09:32;;;;;;;67.17;36.70;;;;;;;;;;4385014;32;20327;-60
2020/12/20 02:12:04;;;;;;;67.97;35.10;;;;;;;;;;4380256;32;20218;-59
2020/12/20 02:14:30;;;;;;;65.40;34.27;;;;;;;;;;4383549;32;20847;-59
2020/12/20 02:16:56;;;;;;;73.50;35.17;;;;;;;;;;4382728;32;20376;-59
2020/12/20 02:19:22;;;;;;;70.33;33.13;;;;;;;;;;4383198;32;20560;-59
2020/12/20 02:21:47;;;;;;;63.93;33.27;;;;;;;;;;4379789;32;20335;-59
2020/12/20 02:24:13;;;;;;;59.40;34.90;;;;;;;;;;4381597;32;20392;-59
2020/12/20 02:26:38;;;;;;;56.43;32.77;;;;;;;;;;4381438;32;20312;-59
2020/12/20 02:29:04;;;;;;;59.57;34.57;;;;;;;;;;4385060;32;20344;-59
2020/12/20 02:31:29;;;;;;;70.80;37.73;;;;;;;;;;4382378;32;20706;-59
2020/12/20 02:33:56;;;;;;;70.87;37.10;;;;;;;;;;4379652;32;20320;-59
2020/12/20 02:36:22;;;;;;;73.57;37.87;;;;;;;;;;4384158;32;20222;-59
2020/12/20 02:38:48;;;;;;;78.43;42.07;;;;;;;;;;4380509;32;20301;-60
2020/12/20 02:41:16;;;;;;;71.93;38.13;;;;;;;;;;4368815;32;20291;-60
2020/12/20 02:43:41;;;;;;;76.47;40.90;;;;;;;;;;4381670;32;20244;-60
2020/12/20 02:46:07;;;;;;;73.03;39.00;;;;;;;;;;4383134;32;20309;-59
2020/12/20 02:48:32;;;;;;;62.30;37.20;;;;;;;;;;4385730;32;20376;-59
2020/12/20 02:50:57;;;;;;;66.07;36.03;;;;;;;;;;4383898;32;20654;-60
2020/12/20 02:53:23;;;;;;;57.50;33.33;;;;;;;;;;4384151;32;20354;-60
2020/12/20 02:55:49;;;;;;;84.17;45.53;;;;;;;;;;4384151;32;20267;-60
2020/12/20 02:58:14;;;;;;;81.53;44.17;;;;;;;;;;4383804;32;20364;-59
2020/12/20 03:00:40;;;;;;;83.27;43.67;;;;;;;;;;4384981;32;20698;-58
2020/12/20 03:03:06;;;;;;;86.80;46.07;;;;;;;;;;4385212;32;20323;-59
2020/12/20 03:05:31;;;;;;;88.03;47.87;;;;;;;;;;4384809;32;20285;-59
2020/12/20 03:07:57;;;;;;;87.63;48.20;;;;;;;;;;4383164;32;20996;-59
2020/12/20 03:10:22;;;;;;;96.70;48.83;;;;;;;;;;4382233;32;20256;-59
2020/12/20 03:12:48;;;;;;;93.47;46.47;;;;;;;;;;4378706;32;20309;-60
2020/12/20 03:15:13;;;;;;;100.57;48.27;;;;;;;;;;4383419;32;20300;-62
2020/12/20 03:17:39;;;;;;;87.43;45.33;;;;;;;;;;4381168;32;20327;-60
2020/12/20 03:20:05;;;;;;;89.03;45.10;;;;;;;;;;4369307;32;20276;-59
2020/12/20 03:22:31;;;;;;;87.03;45.20;;;;;;;;;;4383593;32;20226;-62
2020/12/20 03:24:57;;;;;;;90.90;43.43;;;;;;;;;;4385243;32;20285;-62
2020/12/20 03:27:22;;;;;;;88.37;42.90;;;;;;;;;;4384926;32;20222;-62
2020/12/20 03:29:48;;;;;;;88.00;45.73;;;;;;;;;;4385293;32;20258;-62
2020/12/20 03:32:13;;;;;;;89.97;44.60;;;;;;;;;;4384892;32;20680;-62
2020/12/20 03:34:39;;;;;;;102.87;51.13;;;;;;;;;;4385787;32;20316;-61
2020/12/20 03:37:04;;;;;;;94.43;47.53;;;;;;;;;;4382918;32;20764;-62
2020/12/20 03:39:30;;;;;;;100.03;51.10;;;;;;;;;;4384053;32;20213;-61
2020/12/20 03:41:56;;;;;;;98.33;49.40;;;;;;;;;;4380728;32;20249;-61
2020/12/20 03:44:21;;;;;;;112.17;51.93;;;;;;;;;;4385764;32;20272;-61
2020/12/20 03:46:47;;;;;;;111.67;53.43;;;;;;;;;;4382794;32;20299;-61
2020/12/20 03:49:12;;;;;;;111.33;54.47;;;;;;;;;;4385040;32;20252;-61
2020/12/20 03:51:38;;;;;;;114.50;54.27;;;;;;;;;;4381288;32;20400;-62
2020/12/20 03:54:03;;;;;;;125.07;54.67;;;;;;;;;;4385107;32;20363;-61
2020/12/20 03:56:29;;;;;;;113.20;56.17;;;;;;;;;;4381183;32;20264;-62
2020/12/20 03:58:55;;;;;;;109.43;53.93;;;;;;;;;;4387515;32;20221;-61
2020/12/20 04:01:21;;;;;;;91.57;51.47;;;;;;;;;;4383574;32;20260;-60
2020/12/20 04:03:46;;;;;;;105.83;50.57;;;;;;;;;;4389214;32;20586;-59
2020/12/20 04:06:11;;;;;;;100.40;51.47;;;;;;;;;;4387574;32;20768;-59
2020/12/20 04:08:37;;;;;;;96.23;48.93;;;;;;;;;;4381513;32;20387;-59
2020/12/20 04:11:03;;;;;;;86.33;45.87;;;;;;;;;;4388272;32;20432;-59
2020/12/20 04:13:32;;;;;;;72.27;40.33;;;;;;;;;;4387699;32;20354;-59
2020/12/20 04:16:07;;;;;;;72.87;41.20;;;;;;;;;;4387488;32;20324;-59
2020/12/20 04:18:33;;;;;;;64.27;38.53;;;;;;;;;;4387559;32;20245;-59
2020/12/20 04:20:58;;;;;;;64.63;36.80;;;;;;;;;;4372698;32;20726;-59
2020/12/20 04:23:24;;;;;;;57.77;35.33;;;;;;;;;;4387658;32;20304;-59
2020/12/20 04:25:49;;;;;;;65.47;35.07;;;;;;;;;;4387720;32;20217;-60
2020/12/20 04:28:14;;;;;;;51.97;34.40;;;;;;;;;;4385572;32;20395;-58
2020/12/20 04:30:40;;;;;;;46.17;30.53;;;;;;;;;;4387707;32;20246;-59
2020/12/20 04:33:05;;;;;;;47.67;29.30;;;;;;;;;;4387487;32;20328;-59
2020/12/20 04:35:31;;;;;;;42.17;27.40;;;;;;;;;;4387944;32;20704;-59
2020/12/20 04:37:56;;;;;;;46.37;26.47;;;;;;;;;;4387913;32;20222;-58
2020/12/20 04:40:25;;;;;;;40.43;27.03;;;;;;;;;;4385191;32;20226;-57
2020/12/20 04:42:51;;;;;;;37.10;23.90;;;;;;;;;;4383905;32;20265;-60
2020/12/20 04:45:17;;;;;;;46.90;26.63;;;;;;;;;;4387286;32;20242;-60
2020/12/20 04:47:45;;;;;;;37.93;24.47;;;;;;;;;;4387746;32;21631;-58
2020/12/20 04:50:12;;;;;;;35.63;23.23;;;;;;;;;;4385601;32;20374;-58
2020/12/20 04:52:39;;;;;;;34.90;23.77;;;;;;;;;;4386052;32;20274;-59
2020/12/20 04:55:05;;;;;;;35.93;22.83;;;;;;;;;;4386584;32;20685;-58
2020/12/20 04:57:34;;;;;;;32.00;21.67;;;;;;;;;;4386605;32;20240;-59
2020/12/20 05:00:06;;;;;;;31.57;21.80;;;;;;;;;;4386803;32;20288;-59
2020/12/20 05:02:32;;;;;;;35.20;22.27;;;;;;;;;;4380223;32;20280;-59
2020/12/20 05:04:58;;;;;;;34.10;21.80;;;;;;;;;;4387621;32;20737;-58
2020/12/20 05:07:23;;;;;;;25.03;17.53;;;;;;;;;;4386818;32;20209;-59
2020/12/20 05:09:49;;;;;;;30.60;19.53;;;;;;;;;;4387374;32;20226;-58
2020/12/20 05:12:34;;;;;;;32.27;19.57;;;;;;;;;;4386254;32;20608;-59
2020/12/20 05:15:17;;;;;;;41.57;22.13;;;;;;;;;;4370559;32;20400;-60
2020/12/20 05:17:43;;;;;;;40.90;23.13;;;;;;;;;;4384826;32;20297;-61
2020/12/20 05:20:12;;;;;;;45.77;24.07;;;;;;;;;;4384256;32;20552;-61
2020/12/20 05:22:37;;;;;;;37.93;23.50;;;;;;;;;;4385877;32;20364;-62
2020/12/20 05:25:16;;;;;;;41.70;24.57;;;;;;;;;;4385325;32;20305;-58
2020/12/20 05:27:41;;;;;;;44.73;25.37;;;;;;;;;;4386264;32;20650;-58
2020/12/20 05:30:18;;;;;;;50.13;28.53;;;;;;;;;;4387249;32;20299;-58
2020/12/20 05:32:45;;;;;;;48.77;27.33;;;;;;;;;;4385040;32;20205;-58
2020/12/20 05:35:13;;;;;;;47.13;25.13;;;;;;;;;;4386856;32;20256;-58
2020/12/20 05:37:40;;;;;;;36.00;21.50;;;;;;;;;;4385754;32;20286;-58
2020/12/20 05:40:08;;;;;;;43.00;24.30;;;;;;;;;;4384890;32;20222;-58
2020/12/20 05:42:34;;;;;;;34.90;21.63;;;;;;;;;;4386453;32;20710;-58
2020/12/20 05:45:08;;;;;;;35.63;21.83;;;;;;;;;;4386802;32;20804;-58
2020/12/20 05:47:34;;;;;;;35.07;20.13;;;;;;;;;;4386307;32;20206;-57
2020/12/20 05:49:59;;;;;;;35.03;20.43;;;;;;;;;;4386994;32;20292;-57
2020/12/20 05:52:25;;;;;;;34.13;19.83;;;;;;;;;;4386221;32;20241;-58
2020/12/20 05:54:50;;;;;;;35.93;21.73;;;;;;;;;;4387151;32;20567;-57
2020/12/20 05:57:18;;;;;;;49.13;26.30;;;;;;;;;;4384422;32;20524;-57
2020/12/20 05:59:46;;;;;;;53.60;29.83;;;;;;;;;;4386012;32;20368;-58
2020/12/20 06:02:12;;;;;;;45.23;28.10;;;;;;;;;;4385340;32;20232;-58
2020/12/20 06:04:38;;;;;;;43.53;23.83;;;;;;;;;;4387242;32;20410;-58
2020/12/20 06:07:07;;;;;;;36.67;22.67;;;;;;;;;;4384334;32;20696;-58
2020/12/20 06:09:41;;;;;;;29.83;20.53;;;;;;;;;;4386437;32;20253;-57
2020/12/20 06:12:10;;;;;;;35.03;23.43;;;;;;;;;;4383744;32;20222;-58
2020/12/20 06:14:42;;;;;;;35.80;23.80;;;;;;;;;;4387184;32;20325;-60
2020/12/20 06:17:13;;;;;;;33.17;22.97;;;;;;;;;;4385582;32;20676;-62
2020/12/20 06:19:53;;;;;;;32.50;22.13;;;;;;;;;;4383497;32;20683;-61
2020/12/20 06:22:29;;;;;;;40.17;24.50;;;;;;;;;;4384717;32;20248;-61
2020/12/20 06:24:59;;;;;;;47.50;27.23;;;;;;;;;;4385889;32;20216;-59
2020/12/20 06:27:29;;;;;;;38.23;22.00;;;;;;;;;;4385122;32;20232;-59
2020/12/20 06:30:00;;;;;;;36.37;25.07;;;;;;;;;;4386347;32;20215;-59
2020/12/20 06:32:40;;;;;;;50.50;30.17;;;;;;;;;;4385232;32;20651;-59
2020/12/20 06:35:14;;;;;;;39.80;25.17;;;;;;;;;;4385016;32;20625;-58
2020/12/20 06:37:42;;;;;;;74.03;36.70;;;;;;;;;;4385102;32;20240;-58
2020/12/20 06:40:09;;;;;;;43.53;25.83;;;;;;;;;;4386614;32;20465;-58
2020/12/20 06:42:42;;;;;;;48.57;29.53;;;;;;;;;;4385946;32;20218;-58
2020/12/20 06:45:15;;;;;;;67.67;38.53;;;;;;;;;;4384152;32;20371;-59
2020/12/20 06:47:49;;;;;;;52.10;29.20;;;;;;;;;;4384744;32;20655;-59
2020/12/20 06:50:35;;;;;;;51.53;29.10;;;;;;;;;;4385280;32;20613;-58
2020/12/20 06:53:00;;;;;;;58.33;32.67;;;;;;;;;;4385709;32;20232;-58
2020/12/20 06:55:25;;;;;;;53.27;31.37;;;;;;;;;;4378285;32;20256;-58
2020/12/20 06:58:03;;;;;;;56.93;32.60;;;;;;;;;;4384916;32;20324;-59
2020/12/20 07:00:41;;;;;;;73.40;34.37;;;;;;;;;;4381899;32;20516;-59
2020/12/20 07:03:07;;;;;;;58.50;32.10;;;;;;;;;;4383516;32;20225;-59
2020/12/20 07:05:44;;;;;;;69.60;35.77;;;;;;;;;;4383493;32;20239;-59
2020/12/20 07:08:35;;;;;;;71.90;35.97;;;;;;;;;;4384813;32;20245;-59
2020/12/20 07:11:07;;;;;;;61.33;35.20;;;;;;;;;;4380297;32;20268;-59
2020/12/20 07:13:34;;;;;;;64.93;39.07;;;;;;;;;;4385585;32;20241;-59
2020/12/20 07:16:19;;;;;;;63.23;37.33;;;;;;;;;;4383253;32;20317;-60
2020/12/20 07:18:57;;;;;;;65.37;38.57;;;;;;;;;;4372017;32;20659;-59
2020/12/20 07:21:22;;;;;;;73.90;43.47;;;;;;;;;;4380556;32;20374;-59
2020/12/20 07:24:26;;;;;;;81.77;47.83;;;;;;;;;;4383971;32;20317;-58
2020/12/20 07:26:56;;;;;;;84.47;44.90;;;;;;;;;;4377743;32;20238;-59
2020/12/20 07:29:21;;;;;;;56.60;35.87;;;;;;;;;;4386300;32;20324;-59
2020/12/20 07:31:51;;;;;;;37.70;24.23;;;;;;;;;;4383326;32;20262;-56
2020/12/20 07:34:17;;;;;;;60.70;32.53;;;;;;;;;;4375674;32;20218;-59
2020/12/20 07:36:42;;;;;;;52.30;35.07;;;;;;;;;;4380106;32;20240;-58
2020/12/20 07:39:08;;;;;;;57.23;36.83;;;;;;;;;;4380762;32;20786;-59
2020/12/20 07:41:35;;;;;;;55.90;33.13;;;;;;;;;;4381115;32;20674;-58
2020/12/20 07:44:07;;;;;;;53.93;31.13;;;;;;;;;;4384526;32;20214;-59
2020/12/20 07:46:33;;;;;;;56.67;32.17;;;;;;;;;;4383786;32;20370;-59
2020/12/20 07:49:03;;;;;;;44.23;25.97;;;;;;;;;;4379268;32;20288;-59
2020/12/20 07:51:29;;;;;;;47.13;27.47;;;;;;;;;;4378283;32;20309;-59
2020/12/20 07:54:00;;;;;;;53.60;28.50;;;;;;;;;;4386232;32;20288;-58
2020/12/20 07:56:30;;;;;;;59.63;33.33;;;;;;;;;;4376010;32;20238;-57
2020/12/20 07:58:58;;;;;;;54.13;29.43;;;;;;;;;;4383556;32;20249;-58
2020/12/20 08:01:24;;;;;;;48.77;26.23;;;;;;;;;;4380500;32;20624;-57
2020/12/20 08:04:03;;;;;;;48.27;29.23;;;;;;;;;;4383688;32;20277;-59
2020/12/20 08:06:29;;;;;;;42.93;25.23;;;;;;;;;;4370107;32;20577;-60
2020/12/20 08:09:02;;;;;;;38.27;22.50;;;;;;;;;;4386376;32;20315;-60
2020/12/20 08:11:30;;;;;;;49.67;31.00;;;;;;;;;;4377542;32;20775;-60
2020/12/20 08:13:57;;;;;;;42.73;27.10;;;;;;;;;;4379784;32;20679;-61
2020/12/20 08:16:25;;;;;;;54.40;34.93;;;;;;;;;;4375951;32;20270;-62
2020/12/20 08:18:57;;;;;;;56.80;35.20;;;;;;;;;;4372702;32;20225;-60
2020/12/20 08:21:40;;;;;;;48.07;28.67;;;;;;;;;;4380607;32;20281;-61
2020/12/20 08:24:07;;;;;;;48.60;28.07;;;;;;;;;;4379111;32;20634;-59
2020/12/20 08:26:33;;;;;;;48.57;26.47;;;;;;;;;;4380567;32;20273;-59
2020/12/20 08:28:59;;;;;;;41.20;24.47;;;;;;;;;;4380260;32;20273;-60
2020/12/20 08:31:32;;;;;;;43.53;25.00;;;;;;;;;;4380799;32;20310;-59
2020/12/20 08:33:59;;;;;;;48.80;29.67;;;;;;;;;;4385979;32;20316;-60
2020/12/20 08:36:25;;;;;;;62.27;34.03;;;;;;;;;;4381041;32;20217;-60
2020/12/20 08:38:51;;;;;;;55.40;33.07;;;;;;;;;;4382727;32;20289;-60
2020/12/20 08:41:29;;;;;;;65.00;36.37;;;;;;;;;;4382917;32;20312;-60
2020/12/20 08:44:12;;;;;;;66.13;43.13;;;;;;;;;;4376923;32;20339;-60
2020/12/20 08:46:43;;;;;;;64.33;37.07;;;;;;;;;;4382632;32;20744;-60
2020/12/20 08:49:22;;;;;;;51.40;33.53;;;;;;;;;;4378057;32;20244;-59
2020/12/20 08:51:49;;;;;;;41.50;26.03;;;;;;;;;;4381121;32;20308;-60
2020/12/20 08:54:28;;;;;;;35.27;23.27;;;;;;;;;;4386611;32;20237;-60
2020/12/20 08:56:56;;;;;;;33.10;21.50;;;;;;;;;;4383184;32;20264;-60
2020/12/20 08:59:36;;;;;;;39.63;21.00;;;;;;;;;;4377773;32;20226;-59
2020/12/20 09:02:03;;;;;;;36.57;22.03;;;;;;;;;;4383773;32;20240;-60
2020/12/20 09:04:31;;;;;;;38.60;23.10;;;;;;;;;;4385215;32;20222;-59
2020/12/20 09:07:11;;;;;;;47.77;30.63;;;;;;;;;;4386044;32;20331;-59
2020/12/20 09:09:36;;;;;;;372.00;201.77;;;;;;;;;;4374787;32;20205;-59
2020/12/20 09:12:13;;;;;;;77.00;45.63;;;;;;;;;;4383767;32;20261;-59
2020/12/20 09:14:38;;;;;;;35.37;26.53;;;;;;;;;;4388250;32;20634;-59
2020/12/20 09:17:07;;;;;;;40.43;26.17;;;;;;;;;;4377423;32;20230;-59
2020/12/20 09:19:32;;;;;;;55.43;34.27;;;;;;;;;;4367283;32;20588;-59
2020/12/20 09:21:57;;;;;;;142.60;88.10;;;;;;;;;;4386265;32;20399;-59
2020/12/20 09:24:25;;;;;;;98.43;65.63;;;;;;;;;;4386279;32;20324;-59
2020/12/20 09:26:58;;;;;;;84.67;53.40;;;;;;;;;;4383459;32;20581;-59
2020/12/20 09:29:24;;;;;;;68.90;46.40;;;;;;;;;;4387656;32;20209;-59
2020/12/20 09:31:52;;;;;;;65.00;44.00;;;;;;;;;;4385071;32;20336;-59
2020/12/20 09:34:17;;;;;;;66.67;45.53;;;;;;;;;;4385424;32;20297;-59
2020/12/20 09:36:43;;;;;;;69.53;44.50;;;;;;;;;;4384114;32;20318;-58
2020/12/20 09:39:08;;;;;;;64.17;38.27;;;;;;;;;;4387283;32;20709;-58
2020/12/20 09:41:35;;;;;;;62.53;38.27;;;;;;;;;;4382614;32;20351;-59
2020/12/20 09:44:00;;;;;;;48.43;31.17;;;;;;;;;;4381598;32;20252;-59
2020/12/20 09:46:27;;;;;;;64.37;34.27;;;;;;;;;;4386812;32;20238;-59
2020/12/20 09:48:55;;;;;;;43.63;27.80;;;;;;;;;;4384572;32;20206;-60
2020/12/20 09:51:22;;;;;;;52.43;34.30;;;;;;;;;;4381094;32;20793;-59
2020/12/20 09:53:48;;;;;;;46.83;27.47;;;;;;;;;;4386613;32;20311;-59
2020/12/20 09:56:15;;;;;;;47.20;28.13;;;;;;;;;;4381219;32;20254;-60
2020/12/20 09:58:40;;;;;;;36.93;25.37;;;;;;;;;;4384442;32;20318;-60
2020/12/20 10:01:07;;;;;;;43.47;28.33;;;;;;;;;;4386291;32;20611;-59
2020/12/20 10:03:32;;;;;;;36.77;26.23;;;;;;;;;;4385171;32;20230;-60
2020/12/20 10:05:59;;;;;;;32.20;22.57;;;;;;;;;;4383577;32;20363;-59
2020/12/20 10:08:25;;;;;;;27.17;18.53;;;;;;;;;;4383776;32;20341;-59
2020/12/20 10:10:52;;;;;;;29.43;19.77;;;;;;;;;;4384644;32;20245;-59
2020/12/20 10:13:18;;;;;;;28.83;19.80;;;;;;;;;;4385094;32;20291;-60
2020/12/20 10:15:44;;;;;;;26.20;17.67;;;;;;;;;;4382860;32;20237;-58
2020/12/20 10:18:09;;;;;;;29.87;19.57;;;;;;;;;;4379269;32;20277;-58
2020/12/20 10:20:35;;;;;;;31.40;21.00;;;;;;;;;;4385960;32;20286;-58
2020/12/20 10:23:00;;;;;;;31.70;21.23;;;;;;;;;;4383403;32;20651;-59
2020/12/20 10:25:26;;;;;;;37.63;25.77;;;;;;;;;;4386090;32;20243;-59
2020/12/20 10:27:55;;;;;;;47.53;30.00;;;;;;;;;;4374538;32;20260;-59
2020/12/20 10:30:22;;;;;;;34.53;22.70;;;;;;;;;;4385292;32;20658;-58
2020/12/20 10:32:47;;;;;;;51.10;33.47;;;;;;;;;;4382174;32;20341;-59
2020/12/20 10:35:14;;;;;;;46.17;30.67;;;;;;;;;;4379215;32;20863;-58
2020/12/20 10:37:39;;;;;;;44.60;28.90;;;;;;;;;;4377976;32;20241;-59
2020/12/20 10:40:05;;;;;;;56.50;31.33;;;;;;;;;;4377509;32;20332;-58
2020/12/20 10:42:30;;;;;;;151.83;94.63;;;;;;;;;;4380192;32;20219;-58
2020/12/20 10:44:56;;;;;;;196.23;121.00;;;;;;;;;;4378299;32;20974;-58
2020/12/20 10:47:24;;;;;;;369.73;208.57;;;;;;;;;;4378035;32;20787;-58
2020/12/20 10:49:51;;;;;;;269.27;124.80;;;;;;;;;;4380361;32;20214;-58
2020/12/20 10:52:16;;;;;;;221.53;105.83;;;;;;;;;;4379257;32;20285;-59
2020/12/20 10:54:43;;;;;;;143.97;82.43;;;;;;;;;;4378242;32;20402;-58
2020/12/20 10:57:08;;;;;;;197.20;126.70;;;;;;;;;;4377683;32;20317;-59
2020/12/20 10:59:34;;;;;;;110.50;73.13;;;;;;;;;;4378671;32;20768;-59
2020/12/20 11:01:59;;;;;;;43.87;28.70;;;;;;;;;;4378127;32;20622;-59
2020/12/20 11:04:25;;;;;;;98.47;72.63;;;;;;;;;;4377684;32;20214;-59
2020/12/20 11:06:57;;;;;;;51.37;37.33;;;;;;;;;;4377641;32;20193;-59
2020/12/20 11:09:24;;;;;;;34.83;24.23;;;;;;;;;;4379941;32;20206;-59
2020/12/20 11:11:50;;;;;;;46.63;34.10;;;;;;;;;;4377341;32;20211;-59
2020/12/20 11:14:16;;;;;;;35.77;24.57;;;;;;;;;;4379747;32;20717;-59
2020/12/20 11:16:41;;;;;;;35.43;24.90;;;;;;;;;;4377660;32;20241;-59
2020/12/20 11:19:07;;;;;;;51.47;34.80;;;;;;;;;;4362652;32;20388;-59
2020/12/20 11:21:32;;;;;;;40.20;26.90;;;;;;;;;;4378046;32;20293;-58
2020/12/20 11:23:58;;;;;;;45.63;31.53;;;;;;;;;;4377589;32;20374;-59
2020/12/20 11:26:24;;;;;;;33.87;23.93;;;;;;;;;;4378879;32;20346;-58
2020/12/20 11:28:51;;;;;;;37.80;24.50;;;;;;;;;;4377823;32;20226;-58
2020/12/20 11:31:22;;;;;;;42.43;26.37;;;;;;;;;;4379743;32;20250;-59
2020/12/20 11:33:48;;;;;;;34.67;22.80;;;;;;;;;;4377185;32;20734;-58
2020/12/20 11:36:18;;;;;;;37.57;25.23;;;;;;;;;;4377435;32;20697;-58
2020/12/20 11:38:44;;;;;;;44.67;29.77;;;;;;;;;;4379870;32;20377;-59
2020/12/20 11:41:09;;;;;;;44.60;28.70;;;;;;;;;;4376268;32;20820;-59
2020/12/20 11:43:35;;;;;;;65.47;47.17;;;;;;;;;;4378498;32;20307;-59
2020/12/20 11:46:00;;;;;;;43.13;28.03;;;;;;;;;;4378537;32;20222;-59
2020/12/20 11:48:26;;;;;;;32.30;22.80;;;;;;;;;;4378135;32;20296;-58
2020/12/20 11:50:52;;;;;;;38.40;26.33;;;;;;;;;;4378805;32;20289;-58
2020/12/20 11:53:17;;;;;;;55.37;37.37;;;;;;;;;;4377847;32;20392;-58
2020/12/20 11:55:43;;;;;;;32.77;21.30;;;;;;;;;;4376049;32;20313;-58
2020/12/20 11:58:12;;;;;;;34.43;22.13;;;;;;;;;;4378053;32;20348;-58
2020/12/20 12:00:41;;;;;;;32.30;20.53;;;;;;;;;;4375087;32;20821;-58
2020/12/20 12:03:08;;;;;;;40.93;23.17;;;;;;;;;;4377209;32;20281;-58
2020/12/20 12:05:35;;;;;;;33.27;22.23;;;;;;;;;;4377923;32;20217;-58
2020/12/20 12:08:01;;;;;;;39.67;24.23;;;;;;;;;;4375123;32;20685;-58
2020/12/20 12:10:26;;;;;;;41.43;28.00;;;;;;;;;;4376792;32;20320;-58
2020/12/20 12:12:51;;;;;;;34.37;24.23;;;;;;;;;;4377030;32;20282;-58
2020/12/20 12:15:18;;;;;;;36.47;23.97;;;;;;;;;;4378536;32;20348;-58
2020/12/20 12:17:44;;;;;;;45.77;31.20;;;;;;;;;;4374340;32;20202;-59
2020/12/20 12:20:09;;;;;;;58.20;42.77;;;;;;;;;;4378902;32;20399;-58
2020/12/20 12:22:35;;;;;;;37.20;25.30;;;;;;;;;;4378247;32;20668;-59
2020/12/20 12:25:00;;;;;;;35.57;23.13;;;;;;;;;;4370201;32;20408;-58
2020/12/20 12:27:26;;;;;;;34.93;21.53;;;;;;;;;;4378223;32;20353;-58
2020/12/20 12:29:51;;;;;;;29.07;20.00;;;;;;;;;;4377294;32;20734;-58
2020/12/20 12:32:17;;;;;;;29.33;20.47;;;;;;;;;;4377880;32;20237;-57
2020/12/20 12:34:42;;;;;;;28.30;20.70;;;;;;;;;;4377160;32;20308;-58
2020/12/20 12:37:07;;;;;;;48.33;29.20;;;;;;;;;;4378335;32;21334;-56
2020/12/20 12:39:33;;;;;;;32.97;23.60;;;;;;;;;;4378789;32;20265;-57
2020/12/20 12:42:03;;;;;;;42.27;26.63;;;;;;;;;;4376465;32;20311;-58
2020/12/20 12:44:28;;;;;;;31.57;20.23;;;;;;;;;;4369726;32;20268;-58
2020/12/20 12:46:54;;;;;;;33.60;22.80;;;;;;;;;;4377209;32;20206;-58
2020/12/20 12:49:19;;;;;;;32.13;22.47;;;;;;;;;;4377912;32;20343;-58
2020/12/20 12:51:44;;;;;;;39.57;24.93;;;;;;;;;;4376898;32;20317;-58
2020/12/20 12:54:10;;;;;;;32.13;22.87;;;;;;;;;;4379032;32;20729;-58
2020/12/20 12:56:35;;;;;;;44.73;27.73;;;;;;;;;;4378474;32;20239;-59
2020/12/20 12:59:01;;;;;;;36.27;24.00;;;;;;;;;;4378646;32;20332;-58
2020/12/20 13:01:30;;;;;;;35.23;23.93;;;;;;;;;;4379380;32;20351;-58
2020/12/20 13:03:56;;;;;;;30.40;20.50;;;;;;;;;;4378311;32;20254;-59
2020/12/20 13:06:21;;;;;;;28.20;19.53;;;;;;;;;;4379526;32;20258;-58
2020/12/20 13:08:47;;;;;;;32.17;20.37;;;;;;;;;;4377948;32;20285;-58
2020/12/20 13:11:13;;;;;;;42.50;23.07;;;;;;;;;;4377177;32;20277;-58
2020/12/20 13:13:38;;;;;;;41.73;24.57;;;;;;;;;;4377621;32;21340;-59
2020/12/20 13:16:03;;;;;;;36.77;25.67;;;;;;;;;;4378608;32;20262;-58
2020/12/20 13:18:30;;;;;;;32.20;23.50;;;;;;;;;;4375103;32;20665;-57
2020/12/20 13:20:56;;;;;;;41.47;26.93;;;;;;;;;;4380161;32;20403;-59
2020/12/20 13:23:21;;;;;;;46.73;27.83;;;;;;;;;;4376519;32;20269;-58
2020/12/20 13:25:47;;;;;;;45.60;29.63;;;;;;;;;;4376350;32;20602;-58
2020/12/20 13:28:12;;;;;;;37.17;27.23;;;;;;;;;;4375894;32;20305;-58
2020/12/20 13:30:37;;;;;;;36.83;25.67;;;;;;;;;;4377415;32;20771;-58
2020/12/20 13:33:03;;;;;;;40.83;27.70;;;;;;;;;;4376210;32;20419;-58
2020/12/20 13:35:28;;;;;;;44.17;28.87;;;;;;;;;;4377714;32;20297;-59
2020/12/20 13:37:54;;;;;;;71.00;38.27;;;;;;;;;;4378701;32;20319;-58
2020/12/20 13:40:19;;;;;;;40.13;28.53;;;;;;;;;;4377526;32;20236;-58
2020/12/20 13:42:45;;;;;;;50.70;30.27;;;;;;;;;;4376095;32;20268;-58
2020/12/20 13:45:10;;;;;;;48.20;32.70;;;;;;;;;;4375336;32;20202;-58
2020/12/20 13:47:35;;;;;;;51.27;33.07;;;;;;;;;;4376966;32;20348;-57
2020/12/20 13:50:01;;;;;;;40.77;27.47;;;;;;;;;;4378349;32;20362;-58
2020/12/20 13:52:26;;;;;;;184.90;135.23;;;;;;;;;;4375590;32;20746;-57
2020/12/20 13:54:52;;;;;;;66.37;47.27;;;;;;;;;;4378086;32;20619;-58
2020/12/20 13:57:17;;;;;;;46.70;30.57;;;;;;;;;;4375125;32;20395;-57
2020/12/20 13:59:43;;;;;;;39.60;26.63;;;;;;;;;;4362048;32;20386;-58
2020/12/20 14:02:08;;;;;;;52.50;34.27;;;;;;;;;;4379449;32;20631;-58
2020/12/20 14:04:34;;;;;;;77.93;47.00;;;;;;;;;;4378437;32;20227;-58
2020/12/20 14:06:59;;;;;;;41.83;28.80;;;;;;;;;;4376901;32;20273;-58
2020/12/20 14:09:25;;;;;;;49.90;33.60;;;;;;;;;;4375774;32;20383;-58
2020/12/20 14:11:51;;;;;;;44.07;29.23;;;;;;;;;;4377734;32;20329;-58
2020/12/20 14:14:20;;;;;;;45.60;28.20;;;;;;;;;;4377303;32;20309;-58
2020/12/20 14:16:52;;;;;;;52.47;32.87;;;;;;;;;;4378598;32;20544;-57